sensor_id;sensor_type;location;lat;lon;timestamp;P1;durP1;ratioP1;P2;durP2;ratioP2
33993;SDS011;20673;48.980;8.138;2022-07-24T00:00:22;9.95;;;9.03;;
33993;SDS011;20673;48.980;8.138;2022-07-24T00:02:48;11.00;;;9.90;;
33993;SDS011;20673;48.980;8.138;2022-07-24T00:05:15;11.80;;;10.13;;
33993;SDS011;20673;48.980;8.138;2022-07-24T00:07:41;11.40;;;10.30;;
33993;SDS011;20673;48.980;8.138;2022-07-24T00:10:09;10.58;;;9.60;;
33993;SDS011;20673;48.980;8.138;2022-07-24T00:12:36;10.88;;;9.58;;
33993;SDS011;20673;48.980;8.138;2022-07-24T00:15:03;11.25;;;10.15;;
33993;SDS011;20673;48.980;8.138;2022-07-24T00:17:30;11.18;;;10.15;;
33993;SDS011;20673;48.980;8.138;2022-07-24T00:19:57;11.95;;;10.63;;
33993;SDS011;20673;48.980;8.138;2022-07-24T00:22:23;10.75;;;9.75;;
33993;SDS011;20673;48.980;8.138;2022-07-24T00:24:50;11.73;;;10.63;;
33993;SDS011;20673;48.980;8.138;2022-07-24T00:27:16;10.90;;;9.93;;
33993;SDS011;20673;48.980;8.138;2022-07-24T00:29:42;11.35;;;10.20;;
33993;SDS011;20673;48.980;8.138;2022-07-24T00:32:08;10.48;;;9.40;;
33993;SDS011;20673;48.980;8.138;2022-07-24T00:34:35;11.33;;;9.98;;
33993;SDS011;20673;48.980;8.138;2022-07-24T00:37:01;11.53;;;10.53;;
33993;SDS011;20673;48.980;8.138;2022-07-24T00:39:27;10.53;;;9.43;;
33993;SDS011;20673;48.980;8.138;2022-07-24T00:41:54;11.00;;;9.98;;
33993;SDS011;20673;48.980;8.138;2022-07-24T00:44:20;10.72;;;9.73;;
33993;SDS011;20673;48.980;8.138;2022-07-24T00:46:46;10.93;;;9.83;;
33993;SDS011;20673;48.980;8.138;2022-07-24T00:49:14;10.13;;;9.15;;
33993;SDS011;20673;48.980;8.138;2022-07-24T00:51:44;10.83;;;9.90;;
33993;SDS011;20673;48.980;8.138;2022-07-24T00:54:13;12.65;;;11.43;;
33993;SDS011;20673;48.980;8.138;2022-07-24T00:56:42;12.10;;;10.90;;
33993;SDS011;20673;48.980;8.138;2022-07-24T00:59:10;12.37;;;11.27;;
33993;SDS011;20673;48.980;8.138;2022-07-24T01:01:37;11.00;;;9.90;;
33993;SDS011;20673;48.980;8.138;2022-07-24T01:04:05;12.20;;;10.90;;
33993;SDS011;20673;48.980;8.138;2022-07-24T01:06:32;11.63;;;10.53;;
33993;SDS011;20673;48.980;8.138;2022-07-24T01:08:58;12.07;;;10.88;;
33993;SDS011;20673;48.980;8.138;2022-07-24T01:11:26;12.28;;;11.08;;
33993;SDS011;20673;48.980;8.138;2022-07-24T01:13:54;13.68;;;11.40;;
33993;SDS011;20673;48.980;8.138;2022-07-24T01:16:20;12.07;;;10.98;;
33993;SDS011;20673;48.980;8.138;2022-07-24T01:18:47;11.88;;;10.53;;
33993;SDS011;20673;48.980;8.138;2022-07-24T01:21:13;13.53;;;11.27;;
33993;SDS011;20673;48.980;8.138;2022-07-24T01:23:39;12.00;;;10.80;;
33993;SDS011;20673;48.980;8.138;2022-07-24T01:26:06;11.97;;;10.77;;
33993;SDS011;20673;48.980;8.138;2022-07-24T01:28:34;12.28;;;11.08;;
33993;SDS011;20673;48.980;8.138;2022-07-24T01:31:01;12.40;;;11.30;;
33993;SDS011;20673;48.980;8.138;2022-07-24T01:33:27;12.70;;;11.17;;
33993;SDS011;20673;48.980;8.138;2022-07-24T01:35:53;13.95;;;11.85;;
33993;SDS011;20673;48.980;8.138;2022-07-24T01:38:20;12.58;;;11.25;;
33993;SDS011;20673;48.980;8.138;2022-07-24T01:40:46;13.13;;;11.57;;
33993;SDS011;20673;48.980;8.138;2022-07-24T01:43:12;13.10;;;11.83;;
33993;SDS011;20673;48.980;8.138;2022-07-24T01:45:39;12.37;;;11.18;;
33993;SDS011;20673;48.980;8.138;2022-07-24T01:48:05;12.13;;;11.03;;
33993;SDS011;20673;48.980;8.138;2022-07-24T01:50:31;12.97;;;11.77;;
33993;SDS011;20673;48.980;8.138;2022-07-24T01:52:57;12.23;;;11.03;;
33993;SDS011;20673;48.980;8.138;2022-07-24T01:55:26;11.83;;;10.63;;
33993;SDS011;20673;48.980;8.138;2022-07-24T01:57:52;12.53;;;11.20;;
33993;SDS011;20673;48.980;8.138;2022-07-24T02:00:19;11.90;;;10.68;;
33993;SDS011;20673;48.980;8.138;2022-07-24T02:02:45;12.10;;;10.95;;
33993;SDS011;20673;48.980;8.138;2022-07-24T02:05:12;12.63;;;11.35;;
33993;SDS011;20673;48.980;8.138;2022-07-24T02:07:42;11.85;;;10.70;;
33993;SDS011;20673;48.980;8.138;2022-07-24T02:10:10;12.07;;;10.98;;
33993;SDS011;20673;48.980;8.138;2022-07-24T02:12:39;11.33;;;10.33;;
33993;SDS011;20673;48.980;8.138;2022-07-24T02:15:06;12.70;;;11.33;;
33993;SDS011;20673;48.980;8.138;2022-07-24T02:17:33;12.73;;;11.53;;
33993;SDS011;20673;48.980;8.138;2022-07-24T02:19:59;12.13;;;10.97;;
33993;SDS011;20673;48.980;8.138;2022-07-24T02:22:26;11.80;;;10.60;;
33993;SDS011;20673;48.980;8.138;2022-07-24T02:24:52;11.93;;;10.73;;
33993;SDS011;20673;48.980;8.138;2022-07-24T02:27:18;12.40;;;11.28;;
33993;SDS011;20673;48.980;8.138;2022-07-24T02:29:44;13.35;;;12.05;;
33993;SDS011;20673;48.980;8.138;2022-07-24T02:32:10;12.10;;;10.87;;
33993;SDS011;20673;48.980;8.138;2022-07-24T02:34:36;12.25;;;10.93;;
33993;SDS011;20673;48.980;8.138;2022-07-24T02:37:02;11.73;;;10.60;;
33993;SDS011;20673;48.980;8.138;2022-07-24T02:39:29;12.30;;;11.10;;
33993;SDS011;20673;48.980;8.138;2022-07-24T02:41:55;12.17;;;11.00;;
33993;SDS011;20673;48.980;8.138;2022-07-24T02:44:21;11.12;;;10.03;;
33993;SDS011;20673;48.980;8.138;2022-07-24T02:46:47;11.47;;;10.27;;
33993;SDS011;20673;48.980;8.138;2022-07-24T02:49:13;13.13;;;10.93;;
33993;SDS011;20673;48.980;8.138;2022-07-24T02:51:39;11.73;;;10.53;;
33993;SDS011;20673;48.980;8.138;2022-07-24T02:54:06;13.03;;;11.80;;
33993;SDS011;20673;48.980;8.138;2022-07-24T02:56:32;11.50;;;10.40;;
33993;SDS011;20673;48.980;8.138;2022-07-24T02:58:58;11.57;;;10.48;;
33993;SDS011;20673;48.980;8.138;2022-07-24T03:01:24;12.00;;;10.73;;
33993;SDS011;20673;48.980;8.138;2022-07-24T03:03:50;11.13;;;10.03;;
33993;SDS011;20673;48.980;8.138;2022-07-24T03:06:16;12.17;;;10.93;;
33993;SDS011;20673;48.980;8.138;2022-07-24T03:08:42;12.13;;;11.00;;
33993;SDS011;20673;48.980;8.138;2022-07-24T03:11:09;11.33;;;10.33;;
33993;SDS011;20673;48.980;8.138;2022-07-24T03:13:35;12.40;;;11.10;;
33993;SDS011;20673;48.980;8.138;2022-07-24T03:16:01;11.43;;;10.37;;
33993;SDS011;20673;48.980;8.138;2022-07-24T03:18:27;11.37;;;10.37;;
33993;SDS011;20673;48.980;8.138;2022-07-24T03:20:54;11.30;;;10.20;;
33993;SDS011;20673;48.980;8.138;2022-07-24T03:23:20;10.80;;;9.80;;
33993;SDS011;20673;48.980;8.138;2022-07-24T03:25:46;11.37;;;10.27;;
33993;SDS011;20673;48.980;8.138;2022-07-24T03:28:12;12.03;;;10.83;;
33993;SDS011;20673;48.980;8.138;2022-07-24T03:30:38;12.57;;;10.93;;
33993;SDS011;20673;48.980;8.138;2022-07-24T03:33:05;11.40;;;10.30;;
33993;SDS011;20673;48.980;8.138;2022-07-24T03:35:31;12.17;;;10.80;;
33993;SDS011;20673;48.980;8.138;2022-07-24T03:37:57;11.57;;;10.47;;
33993;SDS011;20673;48.980;8.138;2022-07-24T03:40:23;12.30;;;10.37;;
33993;SDS011;20673;48.980;8.138;2022-07-24T03:42:50;13.20;;;10.17;;
33993;SDS011;20673;48.980;8.138;2022-07-24T03:45:16;11.67;;;10.57;;
33993;SDS011;20673;48.980;8.138;2022-07-24T03:47:42;11.87;;;10.07;;
33993;SDS011;20673;48.980;8.138;2022-07-24T03:50:08;12.00;;;10.48;;
33993;SDS011;20673;48.980;8.138;2022-07-24T03:52:35;11.77;;;10.63;;
33993;SDS011;20673;48.980;8.138;2022-07-24T03:55:01;12.33;;;11.03;;
33993;SDS011;20673;48.980;8.138;2022-07-24T03:57:27;11.60;;;10.48;;
33993;SDS011;20673;48.980;8.138;2022-07-24T03:59:53;12.07;;;10.87;;
33993;SDS011;20673;48.980;8.138;2022-07-24T04:02:19;11.05;;;9.88;;
33993;SDS011;20673;48.980;8.138;2022-07-24T04:04:45;10.80;;;9.70;;
33993;SDS011;20673;48.980;8.138;2022-07-24T04:07:12;14.03;;;10.83;;
33993;SDS011;20673;48.980;8.138;2022-07-24T04:09:38;12.13;;;10.90;;
33993;SDS011;20673;48.980;8.138;2022-07-24T04:12:04;12.10;;;10.73;;
33993;SDS011;20673;48.980;8.138;2022-07-24T04:14:31;10.17;;;9.17;;
33993;SDS011;20673;48.980;8.138;2022-07-24T04:16:57;11.13;;;9.43;;
33993;SDS011;20673;48.980;8.138;2022-07-24T04:19:24;11.70;;;10.60;;
33993;SDS011;20673;48.980;8.138;2022-07-24T04:21:50;12.75;;;9.78;;
33993;SDS011;20673;48.980;8.138;2022-07-24T04:24:16;11.93;;;10.67;;
33993;SDS011;20673;48.980;8.138;2022-07-24T04:26:42;11.60;;;10.50;;
33993;SDS011;20673;48.980;8.138;2022-07-24T04:29:08;10.87;;;9.70;;
33993;SDS011;20673;48.980;8.138;2022-07-24T04:31:35;10.87;;;9.87;;
33993;SDS011;20673;48.980;8.138;2022-07-24T04:34:01;11.57;;;10.47;;
33993;SDS011;20673;48.980;8.138;2022-07-24T04:36:27;11.80;;;10.60;;
33993;SDS011;20673;48.980;8.138;2022-07-24T04:38:53;12.07;;;10.97;;
33993;SDS011;20673;48.980;8.138;2022-07-24T04:41:19;12.27;;;11.00;;
33993;SDS011;20673;48.980;8.138;2022-07-24T04:43:46;11.50;;;10.50;;
33993;SDS011;20673;48.980;8.138;2022-07-24T04:46:12;11.87;;;10.77;;
33993;SDS011;20673;48.980;8.138;2022-07-24T04:48:38;11.97;;;10.83;;
33993;SDS011;20673;48.980;8.138;2022-07-24T04:51:04;11.80;;;10.70;;
33993;SDS011;20673;48.980;8.138;2022-07-24T04:53:31;11.10;;;10.00;;
33993;SDS011;20673;48.980;8.138;2022-07-24T04:55:57;12.10;;;10.90;;
33993;SDS011;20673;48.980;8.138;2022-07-24T04:58:23;12.13;;;10.77;;
33993;SDS011;20673;48.980;8.138;2022-07-24T05:00:52;12.17;;;10.67;;
33993;SDS011;20673;48.980;8.138;2022-07-24T05:03:18;11.27;;;10.27;;
33993;SDS011;20673;48.980;8.138;2022-07-24T05:05:44;10.77;;;9.63;;
33993;SDS011;20673;48.980;8.138;2022-07-24T05:08:11;11.50;;;10.40;;
33993;SDS011;20673;48.980;8.138;2022-07-24T05:10:37;12.40;;;10.20;;
33993;SDS011;20673;48.980;8.138;2022-07-24T05:13:03;11.37;;;10.17;;
33993;SDS011;20673;48.980;8.138;2022-07-24T05:15:29;11.47;;;10.40;;
33993;SDS011;20673;48.980;8.138;2022-07-24T05:17:56;12.40;;;10.47;;
33993;SDS011;20673;48.980;8.138;2022-07-24T05:20:22;11.93;;;10.70;;
33993;SDS011;20673;48.980;8.138;2022-07-24T05:22:49;12.23;;;10.90;;
33993;SDS011;20673;48.980;8.138;2022-07-24T05:25:15;11.80;;;10.47;;
33993;SDS011;20673;48.980;8.138;2022-07-24T05:27:41;10.50;;;9.58;;
33993;SDS011;20673;48.980;8.138;2022-07-24T05:30:08;11.30;;;10.10;;
33993;SDS011;20673;48.980;8.138;2022-07-24T05:32:35;11.17;;;10.20;;
33993;SDS011;20673;48.980;8.138;2022-07-24T05:35:01;12.73;;;10.23;;
33993;SDS011;20673;48.980;8.138;2022-07-24T05:37:28;12.00;;;10.85;;
33993;SDS011;20673;48.980;8.138;2022-07-24T05:39:55;10.00;;;9.10;;
33993;SDS011;20673;48.980;8.138;2022-07-24T05:42:21;11.60;;;10.48;;
33993;SDS011;20673;48.980;8.138;2022-07-24T05:44:47;11.00;;;10.00;;
33993;SDS011;20673;48.980;8.138;2022-07-24T05:47:13;10.40;;;9.40;;
33993;SDS011;20673;48.980;8.138;2022-07-24T05:49:39;9.05;;;8.25;;
33993;SDS011;20673;48.980;8.138;2022-07-24T05:52:06;10.58;;;9.53;;
33993;SDS011;20673;48.980;8.138;2022-07-24T05:54:32;9.37;;;8.57;;
33993;SDS011;20673;48.980;8.138;2022-07-24T05:56:58;9.67;;;8.80;;
33993;SDS011;20673;48.980;8.138;2022-07-24T05:59:24;9.17;;;8.37;;
33993;SDS011;20673;48.980;8.138;2022-07-24T06:01:50;8.23;;;7.53;;
33993;SDS011;20673;48.980;8.138;2022-07-24T06:04:16;8.37;;;7.47;;
33993;SDS011;20673;48.980;8.138;2022-07-24T06:06:42;10.40;;;7.70;;
33993;SDS011;20673;48.980;8.138;2022-07-24T06:09:08;8.63;;;7.77;;
33993;SDS011;20673;48.980;8.138;2022-07-24T06:11:35;8.10;;;6.97;;
33993;SDS011;20673;48.980;8.138;2022-07-24T06:14:01;9.30;;;7.72;;
33993;SDS011;20673;48.980;8.138;2022-07-24T06:16:28;8.15;;;7.35;;
33993;SDS011;20673;48.980;8.138;2022-07-24T06:18:54;8.73;;;7.15;;
33993;SDS011;20673;48.980;8.138;2022-07-24T06:21:20;8.53;;;7.65;;
33993;SDS011;20673;48.980;8.138;2022-07-24T06:23:46;7.97;;;6.40;;
33993;SDS011;20673;48.980;8.138;2022-07-24T06:26:13;7.60;;;6.80;;
33993;SDS011;20673;48.980;8.138;2022-07-24T06:28:39;9.30;;;6.40;;
33993;SDS011;20673;48.980;8.138;2022-07-24T06:31:05;7.47;;;6.28;;
33993;SDS011;20673;48.980;8.138;2022-07-24T06:33:31;6.90;;;6.20;;
33993;SDS011;20673;48.980;8.138;2022-07-24T06:35:58;6.85;;;6.03;;
33993;SDS011;20673;48.980;8.138;2022-07-24T06:38:25;6.42;;;5.83;;
33993;SDS011;20673;48.980;8.138;2022-07-24T06:40:51;6.85;;;6.12;;
33993;SDS011;20673;48.980;8.138;2022-07-24T06:43:18;8.23;;;5.92;;
33993;SDS011;20673;48.980;8.138;2022-07-24T06:45:44;8.00;;;6.17;;
33993;SDS011;20673;48.980;8.138;2022-07-24T06:48:10;7.40;;;6.30;;
33993;SDS011;20673;48.980;8.138;2022-07-24T06:50:36;6.90;;;6.30;;
33993;SDS011;20673;48.980;8.138;2022-07-24T06:53:02;6.30;;;5.70;;
33993;SDS011;20673;48.980;8.138;2022-07-24T06:55:29;7.58;;;6.08;;
33993;SDS011;20673;48.980;8.138;2022-07-24T06:57:55;7.50;;;5.87;;
33993;SDS011;20673;48.980;8.138;2022-07-24T07:00:21;7.50;;;5.87;;
33993;SDS011;20673;48.980;8.138;2022-07-24T07:02:47;7.47;;;5.97;;
33993;SDS011;20673;48.980;8.138;2022-07-24T07:05:15;6.75;;;6.00;;
33993;SDS011;20673;48.980;8.138;2022-07-24T07:07:41;6.53;;;5.60;;
33993;SDS011;20673;48.980;8.138;2022-07-24T07:10:09;6.70;;;6.08;;
33993;SDS011;20673;48.980;8.138;2022-07-24T07:12:35;6.20;;;5.60;;
33993;SDS011;20673;48.980;8.138;2022-07-24T07:15:02;6.95;;;6.35;;
33993;SDS011;20673;48.980;8.138;2022-07-24T07:17:30;8.58;;;6.37;;
33993;SDS011;20673;48.980;8.138;2022-07-24T07:19:57;8.55;;;6.12;;
33993;SDS011;20673;48.980;8.138;2022-07-24T07:22:23;8.05;;;6.55;;
33993;SDS011;20673;48.980;8.138;2022-07-24T07:24:49;8.00;;;6.40;;
33993;SDS011;20673;48.980;8.138;2022-07-24T07:27:15;7.17;;;6.30;;
33993;SDS011;20673;48.980;8.138;2022-07-24T07:29:41;6.65;;;6.05;;
33993;SDS011;20673;48.980;8.138;2022-07-24T07:32:07;6.35;;;5.50;;
33993;SDS011;20673;48.980;8.138;2022-07-24T07:34:33;7.17;;;6.47;;
33993;SDS011;20673;48.980;8.138;2022-07-24T07:36:59;9.00;;;6.30;;
33993;SDS011;20673;48.980;8.138;2022-07-24T07:39:25;9.08;;;5.70;;
33993;SDS011;20673;48.980;8.138;2022-07-24T07:41:52;7.35;;;6.10;;
33993;SDS011;20673;48.980;8.138;2022-07-24T07:44:18;7.42;;;6.72;;
33993;SDS011;20673;48.980;8.138;2022-07-24T07:46:44;7.83;;;6.25;;
33993;SDS011;20673;48.980;8.138;2022-07-24T07:49:10;7.03;;;6.30;;
33993;SDS011;20673;48.980;8.138;2022-07-24T07:51:36;7.85;;;6.33;;
33993;SDS011;20673;48.980;8.138;2022-07-24T07:54:03;7.22;;;6.50;;
33993;SDS011;20673;48.980;8.138;2022-07-24T07:56:29;6.87;;;6.03;;
33993;SDS011;20673;48.980;8.138;2022-07-24T07:58:56;8.65;;;6.28;;
33993;SDS011;20673;48.980;8.138;2022-07-24T08:01:23;7.08;;;6.20;;
33993;SDS011;20673;48.980;8.138;2022-07-24T08:03:49;7.05;;;6.40;;
33993;SDS011;20673;48.980;8.138;2022-07-24T08:06:15;7.20;;;6.60;;
33993;SDS011;20673;48.980;8.138;2022-07-24T08:08:42;7.65;;;6.62;;
33993;SDS011;20673;48.980;8.138;2022-07-24T08:11:08;8.00;;;6.05;;
33993;SDS011;20673;48.980;8.138;2022-07-24T08:13:34;7.80;;;6.45;;
33993;SDS011;20673;48.980;8.138;2022-07-24T08:16:00;10.03;;;6.78;;
33993;SDS011;20673;48.980;8.138;2022-07-24T08:18:27;7.00;;;5.80;;
33993;SDS011;20673;48.980;8.138;2022-07-24T08:20:53;6.37;;;5.72;;
33993;SDS011;20673;48.980;8.138;2022-07-24T08:23:19;12.15;;;6.53;;
33993;SDS011;20673;48.980;8.138;2022-07-24T08:25:45;6.60;;;5.95;;
33993;SDS011;20673;48.980;8.138;2022-07-24T08:28:11;7.42;;;6.72;;
33993;SDS011;20673;48.980;8.138;2022-07-24T08:30:37;8.08;;;6.17;;
33993;SDS011;20673;48.980;8.138;2022-07-24T08:33:04;7.47;;;6.65;;
33993;SDS011;20673;48.980;8.138;2022-07-24T08:35:30;7.60;;;6.28;;
33993;SDS011;20673;48.980;8.138;2022-07-24T08:37:56;9.15;;;6.53;;
33993;SDS011;20673;48.980;8.138;2022-07-24T08:40:23;8.40;;;7.58;;
33993;SDS011;20673;48.980;8.138;2022-07-24T08:42:49;7.72;;;6.92;;
33993;SDS011;20673;48.980;8.138;2022-07-24T08:45:16;8.40;;;7.47;;
33993;SDS011;20673;48.980;8.138;2022-07-24T08:47:42;7.72;;;6.95;;
33993;SDS011;20673;48.980;8.138;2022-07-24T08:50:10;8.68;;;7.37;;
33993;SDS011;20673;48.980;8.138;2022-07-24T08:52:36;9.43;;;7.60;;
33993;SDS011;20673;48.980;8.138;2022-07-24T08:55:04;10.85;;;6.62;;
33993;SDS011;20673;48.980;8.138;2022-07-24T08:57:31;8.40;;;7.00;;
33993;SDS011;20673;48.980;8.138;2022-07-24T08:59:57;7.83;;;7.05;;
33993;SDS011;20673;48.980;8.138;2022-07-24T09:02:25;8.28;;;7.05;;
33993;SDS011;20673;48.980;8.138;2022-07-24T09:04:57;8.15;;;7.25;;
33993;SDS011;20673;48.980;8.138;2022-07-24T09:07:25;8.55;;;7.20;;
33993;SDS011;20673;48.980;8.138;2022-07-24T09:10:08;8.38;;;7.58;;
33993;SDS011;20673;48.980;8.138;2022-07-24T09:12:41;8.13;;;6.80;;
33993;SDS011;20673;48.980;8.138;2022-07-24T09:15:15;7.58;;;6.75;;
33993;SDS011;20673;48.980;8.138;2022-07-24T09:17:54;9.00;;;7.03;;
33993;SDS011;20673;48.980;8.138;2022-07-24T09:20:23;7.35;;;6.75;;
33993;SDS011;20673;48.980;8.138;2022-07-24T09:22:58;9.98;;;7.28;;
33993;SDS011;20673;48.980;8.138;2022-07-24T09:25:26;7.25;;;6.60;;
33993;SDS011;20673;48.980;8.138;2022-07-24T09:27:58;10.00;;;6.75;;
33993;SDS011;20673;48.980;8.138;2022-07-24T09:30:34;7.55;;;6.78;;
33993;SDS011;20673;48.980;8.138;2022-07-24T09:33:04;10.55;;;7.30;;
33993;SDS011;20673;48.980;8.138;2022-07-24T09:35:35;9.00;;;7.83;;
33993;SDS011;20673;48.980;8.138;2022-07-24T09:38:12;7.12;;;6.42;;
33993;SDS011;20673;48.980;8.138;2022-07-24T09:40:45;6.83;;;6.10;;
33993;SDS011;20673;48.980;8.138;2022-07-24T09:45:54;7.22;;;6.62;;
33993;SDS011;20673;48.980;8.138;2022-07-24T09:48:34;7.95;;;7.12;;
33993;SDS011;20673;48.980;8.138;2022-07-24T09:53:40;7.28;;;6.53;;
33993;SDS011;20673;48.980;8.138;2022-07-24T09:56:12;7.05;;;6.35;;
33993;SDS011;20673;48.980;8.138;2022-07-24T10:01:20;7.83;;;7.00;;
33993;SDS011;20673;48.980;8.138;2022-07-24T10:03:50;8.30;;;6.95;;
33993;SDS011;20673;48.980;8.138;2022-07-24T10:06:19;6.87;;;6.28;;
33993;SDS011;20673;48.980;8.138;2022-07-24T10:08:48;7.67;;;6.60;;
33993;SDS011;20673;48.980;8.138;2022-07-24T10:11:18;6.97;;;5.95;;
33993;SDS011;20673;48.980;8.138;2022-07-24T10:13:45;9.80;;;6.83;;
33993;SDS011;20673;48.980;8.138;2022-07-24T10:19:04;8.70;;;6.20;;
33993;SDS011;20673;48.980;8.138;2022-07-24T10:21:36;7.12;;;6.42;;
33993;SDS011;20673;48.980;8.138;2022-07-24T10:26:48;7.08;;;6.37;;
33993;SDS011;20673;48.980;8.138;2022-07-24T10:29:19;7.28;;;5.78;;
33993;SDS011;20673;48.980;8.138;2022-07-24T10:31:52;6.58;;;6.00;;
33993;SDS011;20673;48.980;8.138;2022-07-24T10:40:10;6.22;;;5.58;;
33993;SDS011;20673;48.980;8.138;2022-07-24T10:45:41;6.33;;;5.70;;
33993;SDS011;20673;48.980;8.138;2022-07-24T10:56:18;5.47;;;4.97;;
33993;SDS011;20673;48.980;8.138;2022-07-24T10:58:59;4.58;;;4.17;;
33993;SDS011;20673;48.980;8.138;2022-07-24T11:01:31;5.55;;;4.90;;
33993;SDS011;20673;48.980;8.138;2022-07-24T11:04:03;6.83;;;5.33;;
33993;SDS011;20673;48.980;8.138;2022-07-24T11:06:48;4.85;;;4.42;;
33993;SDS011;20673;48.980;8.138;2022-07-24T11:09:24;5.33;;;4.83;;
33993;SDS011;20673;48.980;8.138;2022-07-24T11:20:03;6.15;;;5.55;;
33993;SDS011;20673;48.980;8.138;2022-07-24T11:22:51;7.58;;;5.05;;
33993;SDS011;20673;48.980;8.138;2022-07-24T11:25:21;5.92;;;5.15;;
33993;SDS011;20673;48.980;8.138;2022-07-24T11:27:52;5.40;;;4.83;;
33993;SDS011;20673;48.980;8.138;2022-07-24T11:30:27;5.70;;;5.03;;
33993;SDS011;20673;48.980;8.138;2022-07-24T11:32:56;5.03;;;4.62;;
33993;SDS011;20673;48.980;8.138;2022-07-24T11:35:27;5.37;;;4.87;;
33993;SDS011;20673;48.980;8.138;2022-07-24T11:38:03;5.33;;;4.58;;
33993;SDS011;20673;48.980;8.138;2022-07-24T11:40:32;5.40;;;4.87;;
33993;SDS011;20673;48.980;8.138;2022-07-24T11:43:01;5.83;;;5.00;;
33993;SDS011;20673;48.980;8.138;2022-07-24T11:45:34;5.30;;;4.85;;
33993;SDS011;20673;48.980;8.138;2022-07-24T11:48:00;5.55;;;4.90;;
33993;SDS011;20673;48.980;8.138;2022-07-24T11:50:27;5.30;;;4.45;;
33993;SDS011;20673;48.980;8.138;2022-07-24T11:52:53;5.60;;;5.10;;
33993;SDS011;20673;48.980;8.138;2022-07-24T11:55:21;4.75;;;4.35;;
33993;SDS011;20673;48.980;8.138;2022-07-24T11:57:53;8.10;;;4.33;;
33993;SDS011;20673;48.980;8.138;2022-07-24T12:00:23;5.85;;;4.80;;
33993;SDS011;20673;48.980;8.138;2022-07-24T12:02:54;5.65;;;4.70;;
33993;SDS011;20673;48.980;8.138;2022-07-24T12:08:03;5.50;;;5.00;;
33993;SDS011;20673;48.980;8.138;2022-07-24T12:10:46;7.12;;;4.92;;
33993;SDS011;20673;48.980;8.138;2022-07-24T12:13:16;5.72;;;5.17;;
33993;SDS011;20673;48.980;8.138;2022-07-24T12:15:42;5.03;;;4.50;;
33993;SDS011;20673;48.980;8.138;2022-07-24T12:18:08;5.15;;;4.75;;
33993;SDS011;20673;48.980;8.138;2022-07-24T12:23:08;6.15;;;4.55;;
33993;SDS011;20673;48.980;8.138;2022-07-24T12:25:38;4.95;;;4.33;;
33993;SDS011;20673;48.980;8.138;2022-07-24T12:30:39;5.03;;;4.53;;
33993;SDS011;20673;48.980;8.138;2022-07-24T12:33:09;5.08;;;4.67;;
33993;SDS011;20673;48.980;8.138;2022-07-24T12:36:03;5.30;;;4.80;;
33993;SDS011;20673;48.980;8.138;2022-07-24T12:38:38;5.22;;;4.42;;
33993;SDS011;20673;48.980;8.138;2022-07-24T12:41:15;5.90;;;4.70;;
33993;SDS011;20673;48.980;8.138;2022-07-24T12:46:23;5.42;;;4.92;;
33993;SDS011;20673;48.980;8.138;2022-07-24T12:48:57;5.53;;;5.03;;
33993;SDS011;20673;48.980;8.138;2022-07-24T12:54:34;5.30;;;4.60;;
33993;SDS011;20673;48.980;8.138;2022-07-24T12:57:11;5.42;;;4.92;;
33993;SDS011;20673;48.980;8.138;2022-07-24T12:59:40;5.37;;;4.80;;
33993;SDS011;20673;48.980;8.138;2022-07-24T13:02:11;5.15;;;4.67;;
33993;SDS011;20673;48.980;8.138;2022-07-24T13:04:55;5.03;;;4.62;;
33993;SDS011;20673;48.980;8.138;2022-07-24T13:07:21;5.58;;;5.08;;
33993;SDS011;20673;48.980;8.138;2022-07-24T13:09:49;6.58;;;5.00;;
33993;SDS011;20673;48.980;8.138;2022-07-24T13:12:17;5.42;;;4.92;;
33993;SDS011;20673;48.980;8.138;2022-07-24T13:14:44;5.25;;;4.85;;
33993;SDS011;20673;48.980;8.138;2022-07-24T13:17:13;5.12;;;4.62;;
33993;SDS011;20673;48.980;8.138;2022-07-24T13:19:43;5.33;;;4.83;;
33993;SDS011;20673;48.980;8.138;2022-07-24T13:22:12;8.73;;;5.37;;
33993;SDS011;20673;48.980;8.138;2022-07-24T13:24:39;5.62;;;4.53;;
33993;SDS011;20673;48.980;8.138;2022-07-24T13:27:08;4.90;;;4.45;;
33993;SDS011;20673;48.980;8.138;2022-07-24T13:29:36;5.37;;;4.97;;
33993;SDS011;20673;48.980;8.138;2022-07-24T13:32:03;5.83;;;5.33;;
33993;SDS011;20673;48.980;8.138;2022-07-24T13:34:30;5.55;;;5.05;;
33993;SDS011;20673;48.980;8.138;2022-07-24T13:36:57;6.40;;;5.78;;
33993;SDS011;20673;48.980;8.138;2022-07-24T13:39:24;5.72;;;5.22;;
33993;SDS011;20673;48.980;8.138;2022-07-24T13:41:51;5.87;;;5.37;;
33993;SDS011;20673;48.980;8.138;2022-07-24T13:44:17;6.12;;;5.53;;
33993;SDS011;20673;48.980;8.138;2022-07-24T13:46:44;5.80;;;5.20;;
33993;SDS011;20673;48.980;8.138;2022-07-24T13:49:10;5.50;;;5.00;;
33993;SDS011;20673;48.980;8.138;2022-07-24T13:51:36;5.92;;;5.33;;
33993;SDS011;20673;48.980;8.138;2022-07-24T13:54:03;7.95;;;5.58;;
33993;SDS011;20673;48.980;8.138;2022-07-24T13:56:30;5.85;;;5.35;;
33993;SDS011;20673;48.980;8.138;2022-07-24T13:58:57;5.92;;;5.42;;
33993;SDS011;20673;48.980;8.138;2022-07-24T14:01:24;5.10;;;4.70;;
33993;SDS011;20673;48.980;8.138;2022-07-24T14:03:51;5.33;;;4.87;;
33993;SDS011;20673;48.980;8.138;2022-07-24T14:06:17;5.83;;;5.33;;
33993;SDS011;20673;48.980;8.138;2022-07-24T14:08:44;5.33;;;4.92;;
33993;SDS011;20673;48.980;8.138;2022-07-24T14:11:10;6.47;;;5.83;;
33993;SDS011;20673;48.980;8.138;2022-07-24T14:13:37;6.55;;;5.55;;
33993;SDS011;20673;48.980;8.138;2022-07-24T14:16:03;5.90;;;5.37;;
33993;SDS011;20673;48.980;8.138;2022-07-24T14:18:31;7.75;;;5.28;;
33993;SDS011;20673;48.980;8.138;2022-07-24T14:20:57;5.70;;;5.10;;
33993;SDS011;20673;48.980;8.138;2022-07-24T14:23:24;5.87;;;5.45;;
33993;SDS011;20673;48.980;8.138;2022-07-24T14:25:50;5.53;;;5.08;;
33993;SDS011;20673;48.980;8.138;2022-07-24T14:28:16;6.40;;;5.80;;
33993;SDS011;20673;48.980;8.138;2022-07-24T14:30:43;5.72;;;5.22;;
33993;SDS011;20673;48.980;8.138;2022-07-24T14:33:09;6.05;;;5.03;;
33993;SDS011;20673;48.980;8.138;2022-07-24T14:35:35;6.37;;;5.65;;
33993;SDS011;20673;48.980;8.138;2022-07-24T14:38:01;6.03;;;5.55;;
33993;SDS011;20673;48.980;8.138;2022-07-24T14:40:28;5.83;;;5.10;;
33993;SDS011;20673;48.980;8.138;2022-07-24T14:42:55;6.25;;;5.75;;
33993;SDS011;20673;48.980;8.138;2022-07-24T14:45:21;7.60;;;5.15;;
33993;SDS011;20673;48.980;8.138;2022-07-24T14:47:48;5.83;;;5.33;;
33993;SDS011;20673;48.980;8.138;2022-07-24T14:50:15;5.87;;;5.37;;
33993;SDS011;20673;48.980;8.138;2022-07-24T14:52:41;5.37;;;4.97;;
33993;SDS011;20673;48.980;8.138;2022-07-24T14:55:07;6.12;;;5.62;;
33993;SDS011;20673;48.980;8.138;2022-07-24T14:57:34;6.62;;;5.67;;
33993;SDS011;20673;48.980;8.138;2022-07-24T15:00:01;6.20;;;5.80;;
33993;SDS011;20673;48.980;8.138;2022-07-24T15:02:31;6.05;;;5.53;;
33993;SDS011;20673;48.980;8.138;2022-07-24T15:04:57;6.75;;;5.72;;
33993;SDS011;20673;48.980;8.138;2022-07-24T15:07:24;6.47;;;5.87;;
33993;SDS011;20673;48.980;8.138;2022-07-24T15:09:50;6.58;;;5.92;;
33993;SDS011;20673;48.980;8.138;2022-07-24T15:12:16;19.52;;;17.70;;
33993;SDS011;20673;48.980;8.138;2022-07-24T15:14:43;6.15;;;5.65;;
33993;SDS011;20673;48.980;8.138;2022-07-24T15:17:09;8.13;;;5.60;;
33993;SDS011;20673;48.980;8.138;2022-07-24T15:19:35;6.83;;;5.83;;
33993;SDS011;20673;48.980;8.138;2022-07-24T15:22:01;5.92;;;5.42;;
33993;SDS011;20673;48.980;8.138;2022-07-24T15:24:28;5.53;;;5.03;;
33993;SDS011;20673;48.980;8.138;2022-07-24T15:26:54;5.60;;;5.10;;
33993;SDS011;20673;48.980;8.138;2022-07-24T15:29:20;5.28;;;4.85;;
33993;SDS011;20673;48.980;8.138;2022-07-24T15:31:46;5.87;;;5.37;;